Mistatim, Canada
Current Conditions -  °F | °C
As of 10:00 PM on Thursday 30 Oct 2014 (Local Time) from CYBU Reporting Station
Clear Clear  
Wind Chill:   Ceiling: Unl
Heat Index: 19°   Visibility: 9mi
Dew Point: 16°   Wind: 9mph
Humidity: 86%   Direction: 150°SSE
Pressure: 30.46"   Gusts: NA
Location:  52.87°N, 103.37°W
Report Text: CYBU 310400Z AUTO 15008KT 9SM CLR M07/M09 A3046 RMK SLP342
Loading
Personal Weather Stations






























Interactive Weather Map
Tropical Storm Tracking
New forecast layout! Learn more

10-Day Weather Forecast

Advertisements
Track Severe Weather on mobile